Time;durP1;ratioP1;P1;durP2;ratioP2;P2;SDS_P1;SDS_P2;PMS_P1;PMS_P2;Temp;Humidity;BMP_temperature;BMP_pressure;BME280_temperature;BME280_humidity;BME280_pressure;Samples;Min_cycle;Max_cycle;Signal;HPM_P1;HPM_P2
2023/07/09 00:02:14;;;;;;;8.30;6.22;;;;;;;23.78;90.15;101671.63;5069753;28;20056;-37
2023/07/09 00:04:39;;;;;;;7.60;6.25;;;;;;;23.77;91.13;101661.69;5070406;28;20052;-37
2023/07/09 00:07:05;;;;;;;7.65;6.53;;;;;;;23.68;90.80;101659.91;5069199;28;20431;-37
2023/07/09 00:09:31;;;;;;;13.55;6.75;;;;;;;23.74;90.50;101665.03;5069217;28;20112;-38
2023/07/09 00:11:58;;;;;;;8.07;6.90;;;;;;;23.63;90.82;101669.91;5055789;28;20048;-37
2023/07/09 00:14:23;;;;;;;8.52;6.72;;;;;;;23.67;90.54;101672.03;5055992;28;20476;-37
2023/07/09 00:16:48;;;;;;;8.85;7.38;;;;;;;23.61;90.69;101674.84;5056523;28;20035;-37
2023/07/09 00:19:17;;;;;;;7.78;7.03;;;;;;;23.49;91.71;101677.25;5055800;28;20393;-37
2023/07/09 00:21:45;;;;;;;9.15;7.35;;;;;;;23.37;92.35;101685.97;5056976;28;20037;-37
2023/07/09 00:24:13;;;;;;;9.77;7.55;;;;;;;23.25;92.13;101673.72;5054803;28;20416;-37
2023/07/09 00:26:42;;;;;;;12.57;7.70;;;;;;;23.25;93.83;101676.50;5056091;28;20029;-37
2023/07/09 00:29:11;;;;;;;10.40;7.10;;;;;;;23.28;92.95;101685.00;5055948;28;20029;-37
2023/07/09 00:31:43;;;;;;;9.85;6.65;;;;;;;23.30;93.56;101680.00;5055770;28;20043;-37
2023/07/09 00:34:17;;;;;;;6.82;5.65;;;;;;;23.34;93.47;101681.06;5056514;28;20036;-37
2023/07/09 00:36:45;;;;;;;9.80;6.43;;;;;;;23.26;93.26;101683.66;5055872;28;20028;-37
2023/07/09 00:39:21;;;;;;;7.35;6.18;;;;;;;23.26;92.73;101683.66;5055764;28;20025;-37
2023/07/09 00:41:47;;;;;;;;;;;;;;;23.43;88.94;101694.19;5056501;28;20037;-37
2023/07/09 00:44:30;;;;;;;9.77;6.53;;;;;;;23.29;91.58;101683.88;5055997;28;19932;-37
2023/07/09 00:47:01;;;;;;;9.18;6.78;;;;;;;23.10;93.05;101681.09;5055685;28;20263;-37
2023/07/09 00:49:34;;;;;;;9.13;6.55;;;;;;;23.15;93.34;101693.19;5056097;28;20044;-37
2023/07/09 00:52:03;;;;;;;8.35;6.70;;;;;;;22.96;94.14;101691.19;5055838;28;20052;-37
2023/07/09 00:54:36;;;;;;;8.90;7.07;;;;;;;22.93;96.11;101685.44;5055714;28;20421;-37
2023/07/09 00:57:08;;;;;;;9.57;7.10;;;;;;;22.91;95.29;101690.44;5056058;28;20036;-37
2023/07/09 00:59:34;;;;;;;8.38;6.63;;;;;;;22.90;95.84;101686.84;5055396;28;20049;-37
2023/07/09 01:02:00;;;;;;;10.30;7.57;;;;;;;22.77;95.83;101685.56;5056490;28;20078;-37
2023/07/09 01:04:27;;;;;;;8.50;7.60;;;;;;;22.93;94.83;101685.44;5056095;28;20040;-37
2023/07/09 01:06:56;;;;;;;10.18;6.88;;;;;;;22.84;95.70;101688.00;5054461;28;20025;-37
2023/07/09 01:09:23;;;;;;;10.02;7.13;;;;;;;22.80;95.86;101681.44;5055184;28;20116;-37
2023/07/09 01:11:48;;;;;;;9.40;7.13;;;;;;;22.76;95.39;101675.66;5055215;28;20423;-37
2023/07/09 01:14:21;;;;;;;9.10;6.65;;;;;;;22.67;98.37;101671.91;5055154;28;20029;-37
2023/07/09 01:16:56;;;;;;;8.88;7.72;;;;;;;22.71;95.80;101666.63;5054803;28;20033;-37
2023/07/09 01:19:40;;;;;;;8.68;7.57;;;;;;;22.76;95.82;101674.84;5055252;28;20055;-37
2023/07/09 01:22:05;;;;;;;8.82;7.55;;;;;;;22.72;95.53;101679.31;5054287;28;20032;-37
2023/07/09 01:24:50;;;;;;;7.80;7.00;;;;;;;22.71;95.24;101674.91;5054667;28;20028;-37
2023/07/09 01:27:18;;;;;;;9.65;7.28;;;;;;;22.81;95.68;101677.56;5055448;28;20025;-37
2023/07/09 01:29:48;;;;;;;8.32;7.35;;;;;;;22.67;95.30;101687.63;5054521;28;20473;-37
2023/07/09 01:32:18;;;;;;;9.57;6.93;;;;;;;22.74;96.03;101693.59;5055636;28;20033;-37
2023/07/09 01:34:47;;;;;;;11.50;8.45;;;;;;;22.74;95.75;101690.84;5055071;28;20483;-37
2023/07/09 01:37:16;;;;;;;9.45;7.78;;;;;;;22.69;95.51;101702.75;5055020;28;20378;-37
2023/07/09 01:39:41;;;;;;;13.98;8.13;;;;;;;22.63;95.17;101690.97;5054519;28;20354;-37
2023/07/09 01:42:08;;;;;;;9.38;7.25;;;;;;;22.75;94.50;101714.56;5055474;28;20035;-37
2023/07/09 01:44:35;;;;;;;10.48;8.55;;;;;;;22.59;94.82;101705.63;5054558;28;20063;-37
2023/07/09 01:47:03;;;;;;;9.75;7.90;;;;;;;22.50;94.97;101699.94;5054817;28;20063;-37
2023/07/09 01:49:32;;;;;;;9.50;8.38;;;;;;;22.54;95.00;101702.91;5054910;28;20151;-37
2023/07/09 01:52:00;;;;;;;11.85;8.48;;;;;;;22.43;95.77;101704.94;5055247;28;20060;-37
2023/07/09 01:54:30;;;;;;;10.45;9.15;;;;;;;22.47;95.65;101700.50;5054334;28;20095;-37
2023/07/09 01:57:22;;;;;;;10.98;8.95;;;;;;;22.43;95.55;101709.63;5054866;28;20382;-37
2023/07/09 01:59:48;;;;;;;9.85;8.75;;;;;;;22.48;95.33;101713.16;5053867;28;20041;-37
2023/07/09 02:02:18;;;;;;;11.10;9.05;;;;;;;22.37;95.96;101708.88;5054252;28;20158;-37
2023/07/09 02:04:47;;;;;;;9.05;8.07;;;;;;;22.38;96.02;101706.94;5054748;28;20017;-37
2023/07/09 02:07:13;;;;;;;12.68;9.48;;;;;;;22.25;96.96;101700.16;5054174;28;20535;-37
2023/07/09 02:09:39;;;;;;;12.20;9.00;;;;;;;22.27;97.16;101717.22;5054159;28;20029;-37
2023/07/09 02:12:04;;;;;;;10.27;8.82;;;;;;;22.18;97.96;101714.25;5053418;28;20025;-37
2023/07/09 02:14:30;;;;;;;10.68;8.98;;;;;;;22.26;97.48;101712.84;5054523;28;20496;-37
2023/07/09 02:16:55;;;;;;;9.73;8.82;;;;;;;22.24;97.80;101709.53;5054281;28;20454;-37
2023/07/09 02:19:20;;;;;;;12.15;9.57;;;;;;;22.15;98.76;101709.31;5053874;28;20415;-37
2023/07/09 02:21:46;;;;;;;11.05;8.73;;;;;;;22.13;98.41;101706.03;5053931;28;20036;-37
2023/07/09 02:24:11;;;;;;;10.65;8.80;;;;;;;22.11;98.94;101708.28;5053637;28;20131;-37
2023/07/09 02:26:36;;;;;;;9.82;8.82;;;;;;;22.10;98.43;101717.59;5053806;28;20035;-37
2023/07/09 02:29:02;;;;;;;10.52;8.98;;;;;;;22.02;98.48;101712.72;5053426;28;20064;-37
2023/07/09 02:31:29;;;;;;;10.30;8.65;;;;;;;22.08;98.42;101719.81;5054083;28;20029;-37
2023/07/09 02:33:55;;;;;;;12.13;8.93;;;;;;;21.97;99.77;101710.81;5053470;28;20450;-37
2023/07/09 02:36:21;;;;;;;10.32;9.02;;;;;;;21.91;99.29;101703.72;5054519;28;20066;-37
2023/07/09 02:38:46;;;;;;;10.25;8.63;;;;;;;21.90;99.39;101712.25;5053568;28;20062;-37
2023/07/09 02:41:11;;;;;;;10.75;9.27;;;;;;;21.83;99.59;101705.13;5053903;28;20472;-37
2023/07/09 02:43:37;;;;;;;10.68;8.77;;;;;;;21.90;100.00;101712.25;5053877;28;20111;-37
2023/07/09 02:46:03;;;;;;;13.65;9.75;;;;;;;21.82;99.19;101697.97;5053928;28;20025;-37
2023/07/09 02:48:28;;;;;;;12.80;9.70;;;;;;;21.83;99.74;101715.31;5053538;28;20025;-37
2023/07/09 02:50:54;;;;;;;11.50;9.20;;;;;;;21.92;99.45;101721.88;5053756;28;20041;-37
2023/07/09 02:53:19;;;;;;;10.10;9.10;;;;;;;21.85;99.30;101711.16;5053115;28;20473;-37
2023/07/09 02:55:44;;;;;;;14.25;10.52;;;;;;;21.78;98.16;101694.16;5053737;28;20025;-37
2023/07/09 02:58:10;;;;;;;10.23;9.15;;;;;;;21.83;100.00;101707.06;5053294;28;20025;-37
2023/07/09 03:00:35;;;;;;;13.52;10.30;;;;;;;21.76;100.00;101710.13;5053423;28;20099;-37
2023/07/09 03:03:00;;;;;;;10.43;9.30;;;;;;;21.69;100.00;101709.63;5052358;28;20104;-37
2023/07/09 03:05:25;;;;;;;10.93;9.75;;;;;;;21.72;100.00;101705.50;5053956;28;20124;-37
2023/07/09 03:07:51;;;;;;;11.82;9.63;;;;;;;21.71;100.00;101707.41;5053433;28;20029;-37
2023/07/09 03:10:16;;;;;;;10.77;9.68;;;;;;;21.64;100.00;101704.16;5053541;28;20098;-37
2023/07/09 03:12:41;;;;;;;11.68;9.38;;;;;;;21.59;100.00;101698.69;5053276;28;20531;-37
2023/07/09 03:15:07;;;;;;;10.88;9.77;;;;;;;21.62;100.00;101695.38;5053233;28;20071;-37
2023/07/09 03:17:32;;;;;;;9.25;8.38;;;;;;;21.62;100.00;101706.38;5053249;28;20029;-37
2023/07/09 03:19:58;;;;;;;10.40;9.05;;;;;;;21.56;100.00;101707.50;5053471;28;20110;-37
2023/07/09 03:22:23;;;;;;;10.70;9.63;;;;;;;21.58;100.00;101716.31;5053515;28;20025;-37
2023/07/09 03:24:48;;;;;;;10.55;9.45;;;;;;;21.55;100.00;101705.84;5052916;28;20366;-37
2023/07/09 03:27:14;;;;;;;10.88;9.77;;;;;;;21.54;100.00;101705.03;5053249;28;20033;-37
2023/07/09 03:29:39;;;;;;;11.52;9.98;;;;;;;21.47;100.00;101698.19;5053135;28;20029;-37
2023/07/09 03:32:05;;;;;;;12.68;9.65;;;;;;;21.47;100.00;101710.03;5053719;28;20104;-37
2023/07/09 03:34:30;;;;;;;11.23;9.63;;;;;;;21.49;100.00;101707.00;5052808;28;20110;-37
2023/07/09 03:36:56;;;;;;;13.60;10.10;;;;;;;21.56;100.00;101707.50;5052840;28;20064;-37
2023/07/09 03:39:21;;;;;;;11.75;10.25;;;;;;;21.42;100.00;101707.28;5052917;28;20048;-37
2023/07/09 03:41:46;;;;;;;11.13;10.02;;;;;;;21.45;100.00;101705.91;5053365;28;20465;-37
2023/07/09 03:44:12;;;;;;;10.90;9.30;;;;;;;21.37;100.00;101701.81;5053557;28;20033;-37
2023/07/09 03:46:38;;;;;;;11.15;9.55;;;;;;;21.41;100.00;101705.66;5055746;28;20032;-37
2023/07/09 03:49:03;;;;;;;11.43;9.80;;;;;;;21.44;100.00;101705.09;5056702;28;20025;-37
2023/07/09 03:51:28;;;;;;;11.90;9.63;;;;;;;21.42;100.00;101698.22;5056783;28;20152;-37
2023/07/09 03:53:54;;;;;;;11.38;10.05;;;;;;;21.41;100.00;101699.31;5056944;28;20025;-37
2023/07/09 03:56:19;;;;;;;12.02;10.30;;;;;;;21.38;100.00;101699.91;5056669;28;20052;-37
2023/07/09 03:58:46;;;;;;;11.40;10.23;;;;;;;21.40;100.00;101701.25;5056564;28;20071;-37
2023/07/09 04:01:11;;;;;;;11.40;10.18;;;;;;;21.26;100.00;101687.25;5056829;28;20029;-37
2023/07/09 04:03:36;;;;;;;11.57;10.20;;;;;;;21.29;100.00;101691.38;5056757;28;20431;-37
2023/07/09 04:06:02;;;;;;;12.32;10.48;;;;;;;21.41;100.00;101704.84;5057118;28;20449;-37
2023/07/09 04:08:27;;;;;;;12.90;10.90;;;;;;;21.43;100.00;101702.63;5056432;28;20108;-37
2023/07/09 04:10:56;;;;;;;12.70;11.40;;;;;;;21.40;100.00;101694.94;5056922;28;20108;-37
2023/07/09 04:13:22;;;;;;;14.85;11.32;;;;;;;21.43;100.00;101692.44;5056847;28;20412;-37
2023/07/09 04:15:48;;;;;;;12.52;10.27;;;;;;;21.51;100.00;101704.78;5056572;28;20024;-37
2023/07/09 04:18:13;;;;;;;12.15;10.57;;;;;;;21.46;100.00;101707.56;5055860;28;20491;-37
2023/07/09 04:20:38;;;;;;;11.90;10.70;;;;;;;21.52;100.00;101704.50;5056520;28;20036;-37
2023/07/09 04:23:05;;;;;;;12.52;10.30;;;;;;;21.52;100.00;101706.41;5056706;28;20033;-37
2023/07/09 04:25:31;;;;;;;14.80;11.38;;;;;;;21.52;100.00;101707.25;5056348;28;20027;-37
2023/07/09 04:27:56;;;;;;;14.65;10.95;;;;;;;21.67;100.00;101706.34;5056374;28;20465;-37
2023/07/09 04:30:21;;;;;;;14.07;11.05;;;;;;;21.60;100.00;101706.66;5055968;28;20393;-37
2023/07/09 04:32:47;;;;;;;14.63;11.93;;;;;;;21.64;100.00;101711.59;5056257;28;20032;-37
2023/07/09 04:35:14;;;;;;;12.98;11.40;;;;;;;21.77;100.00;101714.53;5055959;28;20060;-37
2023/07/09 04:37:40;;;;;;;16.45;11.88;;;;;;;21.78;100.00;101707.91;5055899;28;20033;-37
2023/07/09 04:40:09;;;;;;;13.38;11.52;;;;;;;21.76;100.00;101699.09;5055479;28;20491;-37
2023/07/09 04:42:34;;;;;;;15.07;12.73;;;;;;;21.77;100.00;101695.28;5056641;28;20025;-37
2023/07/09 04:44:59;;;;;;;12.90;11.20;;;;;;;21.91;100.00;101706.47;5056029;28;20021;-37
2023/07/09 04:47:25;;;;;;;16.63;12.25;;;;;;;22.08;100.00;101701.38;5056301;28;20033;-37
2023/07/09 04:49:51;;;;;;;15.50;11.98;;;;;;;22.15;100.00;101701.06;5056136;28;20067;-37
2023/07/09 04:52:16;;;;;;;14.02;12.55;;;;;;;22.22;100.00;101704.31;5056153;28;20079;-37
2023/07/09 04:54:44;;;;;;;16.92;13.27;;;;;;;22.21;100.00;101699.94;5055567;28;20113;-37
2023/07/09 04:57:11;;;;;;;13.82;12.02;;;;;;;22.33;100.00;101707.78;5055104;28;20032;-37
2023/07/09 04:59:36;;;;;;;15.52;12.38;;;;;;;22.35;100.00;101709.16;5055914;28;20049;-37
2023/07/09 05:02:02;;;;;;;14.85;13.30;;;;;;;22.44;100.00;101708.53;5055974;28;20086;-37
2023/07/09 05:04:27;;;;;;;15.73;14.13;;;;;;;22.40;100.00;101696.44;5055643;28;20029;-37
2023/07/09 05:06:53;;;;;;;17.30;13.70;;;;;;;22.51;100.00;101700.75;5055026;28;20517;-37
2023/07/09 05:09:18;;;;;;;14.80;13.40;;;;;;;22.61;100.00;101697.91;5055243;28;20033;-37
2023/07/09 05:11:43;;;;;;;14.63;13.20;;;;;;;22.55;100.00;101688.03;5055574;28;20033;-37
2023/07/09 05:14:09;;;;;;;15.75;14.15;;;;;;;22.74;100.00;101699.97;5054906;28;20029;-37
2023/07/09 05:16:34;;;;;;;15.98;14.35;;;;;;;22.82;100.00;101707.59;5055125;28;20033;-37
2023/07/09 05:19:00;;;;;;;17.10;15.30;;;;;;;22.84;100.00;101705.38;5055527;28;20024;-37
2023/07/09 05:21:25;;;;;;;16.50;14.90;;;;;;;22.94;100.00;101704.47;5055061;28;20029;-37
2023/07/09 05:23:50;;;;;;;15.35;13.85;;;;;;;22.99;100.00;101700.81;5055524;28;20079;-37
2023/07/09 05:26:16;;;;;;;14.40;12.93;;;;;;;23.16;98.93;101695.63;5055255;28;20060;-37
2023/07/09 05:28:41;;;;;;;14.82;13.25;;;;;;;23.22;98.40;101707.41;5055190;28;20519;-37
2023/07/09 05:31:07;;;;;;;14.80;13.07;;;;;;;23.22;98.49;101699.97;5055394;28;20029;-37
2023/07/09 05:33:32;;;;;;;14.35;12.93;;;;;;;23.40;97.44;101703.88;5055649;28;20033;-37
2023/07/09 05:35:58;;;;;;;14.10;12.57;;;;;;;23.49;95.33;101687.47;5055289;28;20033;-37
2023/07/09 05:38:23;;;;;;;13.73;12.10;;;;;;;23.62;95.01;101695.84;5054674;28;20029;-37
2023/07/09 05:40:58;;;;;;;16.25;13.05;;;;;;;23.71;94.32;101700.72;5055205;28;20040;-37
2023/07/09 05:43:23;;;;;;;14.30;12.82;;;;;;;23.78;92.56;101699.22;5054568;28;20117;-37
2023/07/09 05:45:48;;;;;;;14.82;12.45;;;;;;;23.93;92.31;101703.69;5054325;28;20107;-37
2023/07/09 05:48:14;;;;;;;15.43;11.38;;;;;;;23.94;92.28;101708.09;5054310;28;20021;-37
2023/07/09 05:50:39;;;;;;;14.48;12.13;;;;;;;23.98;90.79;101703.59;5054835;28;20021;-37
2023/07/09 05:53:05;;;;;;;14.02;12.13;;;;;;;24.02;91.14;101703.84;5054976;28;20036;-37
2023/07/09 05:55:30;;;;;;;15.65;13.35;;;;;;;24.16;90.10;101718.53;5054402;28;20028;-37
2023/07/09 05:57:56;;;;;;;14.15;12.73;;;;;;;24.23;90.46;101707.91;5054717;28;20082;-37
2023/07/09 06:00:21;;;;;;;14.75;13.25;;;;;;;24.22;89.60;101689.69;5055423;28;20049;-37
2023/07/09 06:02:47;;;;;;;16.40;13.02;;;;;;;24.40;88.76;101704.59;5054503;28;20033;-37
2023/07/09 06:05:14;;;;;;;14.40;12.75;;;;;;;24.51;87.83;101708.00;5054259;28;20052;-37
2023/07/09 06:07:39;;;;;;;14.55;13.18;;;;;;;24.62;87.87;101709.44;5054196;28;20024;-37
2023/07/09 06:10:06;;;;;;;14.85;12.75;;;;;;;24.67;88.17;101712.94;5053620;28;20025;-38
2023/07/09 06:12:31;;;;;;;15.70;14.20;;;;;;;24.74;87.65;101718.06;5054330;28;20408;-38
2023/07/09 06:14:57;;;;;;;13.93;12.48;;;;;;;24.83;87.64;101715.41;5054274;28;20082;-37
2023/07/09 06:17:22;;;;;;;14.98;12.93;;;;;;;24.81;88.53;101706.59;5054267;28;20366;-37
2023/07/09 06:19:47;;;;;;;13.00;11.60;;;;;;;24.93;85.77;101704.13;5054431;28;20059;-38
2023/07/09 06:22:13;;;;;;;14.57;13.07;;;;;;;25.05;84.21;101717.47;5054235;28;20024;-38
2023/07/09 06:24:38;;;;;;;12.68;11.38;;;;;;;25.12;85.17;101723.44;5053860;28;20028;-38
2023/07/09 06:27:04;;;;;;;14.98;12.50;;;;;;;25.24;83.51;101723.75;5053950;28;20037;-38
2023/07/09 06:29:29;;;;;;;13.98;12.50;;;;;;;25.30;83.05;101718.94;5054030;28;20041;-38
2023/07/09 06:31:55;;;;;;;14.52;13.00;;;;;;;25.34;85.62;101720.75;5053509;28;20035;-38
2023/07/09 06:34:20;;;;;;;14.07;12.68;;;;;;;25.35;85.41;101725.16;5054010;28;20060;-38
2023/07/09 06:36:45;;;;;;;14.00;12.52;;;;;;;25.42;85.70;101721.97;5054277;28;20104;-38
2023/07/09 06:39:11;;;;;;;13.77;12.00;;;;;;;25.49;84.89;101727.09;5053768;28;20025;-38
2023/07/09 06:41:38;;;;;;;12.43;11.02;;;;;;;25.54;84.48;101725.03;5053708;28;20484;-38
2023/07/09 06:44:08;;;;;;;13.80;12.40;;;;;;;25.58;82.60;101720.53;5053632;28;20025;-38
2023/07/09 06:46:34;;;;;;;14.65;13.13;;;;;;;25.64;83.42;101716.50;5053915;28;20048;-38
2023/07/09 06:49:01;;;;;;;13.15;11.52;;;;;;;25.70;82.46;101717.19;5053553;28;20111;-38
2023/07/09 06:51:27;;;;;;;15.82;11.55;;;;;;;25.78;82.07;101719.28;5054079;28;20404;-38
2023/07/09 06:53:52;;;;;;;13.48;11.98;;;;;;;25.85;82.31;101716.88;5053542;28;20083;-38
2023/07/09 06:56:17;;;;;;;12.88;11.57;;;;;;;25.92;82.10;101714.50;5053504;28;20385;-38
2023/07/09 06:58:45;;;;;;;13.27;11.98;;;;;;;25.89;81.22;101701.25;5053451;28;20085;-38
2023/07/09 07:01:11;;;;;;;12.68;11.30;;;;;;;26.02;83.07;101712.63;5053402;28;20053;-38
2023/07/09 07:03:36;;;;;;;13.82;11.90;;;;;;;26.09;82.15;101708.25;5053352;28;20116;-38
2023/07/09 07:06:02;;;;;;;14.32;10.65;;;;;;;26.18;79.42;101716.63;5053663;28;20393;-38
2023/07/09 07:08:28;;;;;;;11.52;10.40;;;;;;;26.24;78.96;101718.13;5053589;28;20033;-38
2023/07/09 07:11:02;;;;;;;12.05;10.68;;;;;;;26.34;81.29;101720.66;5053011;28;20039;-38
2023/07/09 07:13:39;;;;;;;11.98;10.68;;;;;;;26.41;78.78;101718.25;5053263;28;20056;-38
2023/07/09 07:16:08;;;;;;;13.43;10.23;;;;;;;26.49;77.92;101715.88;5053534;28;20057;-38
2023/07/09 07:18:34;;;;;;;13.75;10.15;;;;;;;26.53;77.32;101701.06;5053184;28;20025;-38
2023/07/09 07:21:00;;;;;;;12.73;10.23;;;;;;;26.67;76.49;101714.84;5055406;28;20059;-38
2023/07/09 07:23:25;;;;;;;11.18;9.98;;;;;;;26.79;78.53;101717.00;5056963;28;20489;-38
2023/07/09 07:25:51;;;;;;;13.85;10.70;;;;;;;26.81;77.55;101711.97;5057514;28;20032;-38
2023/07/09 07:28:17;;;;;;;13.23;10.00;;;;;;;26.80;76.70;101700.06;5056839;28;20076;-38
2023/07/09 07:30:43;;;;;;;11.65;9.27;;;;;;;26.96;75.96;101725.41;5057435;28;20121;-38
2023/07/09 07:33:09;;;;;;;10.60;8.88;;;;;;;26.98;77.69;101719.53;5057553;28;20512;-38
2023/07/09 07:35:36;;;;;;;10.38;8.65;;;;;;;27.08;75.85;101722.84;5057561;28;20418;-38
2023/07/09 07:38:01;;;;;;;9.35;7.70;;;;;;;27.20;78.81;101722.25;5056689;28;20052;-38
2023/07/09 07:40:27;;;;;;;9.98;7.50;;;;;;;27.28;75.48;101718.69;5056929;28;20064;-38
2023/07/09 07:42:52;;;;;;;7.88;7.07;;;;;;;27.24;76.41;101706.59;5056918;28;20025;-38
2023/07/09 07:45:17;;;;;;;9.07;6.88;;;;;;;27.34;71.91;101706.28;5057366;28;20051;-38
2023/07/09 07:47:43;;;;;;;7.88;5.93;;;;;;;27.43;71.57;101698.78;5057444;28;20100;-37
2023/07/09 07:50:10;;;;;;;8.93;5.65;;;;;;;27.54;68.62;101715.94;5057561;28;20032;-37
2023/07/09 07:52:37;;;;;;;9.82;5.53;;;;;;;27.62;67.12;101711.53;5056729;28;20112;-37
2023/07/09 07:55:06;;;;;;;8.77;5.40;;;;;;;27.73;68.18;101721.22;5056632;28;20040;-37
2023/07/09 07:57:32;;;;;;;7.13;5.80;;;;;;;27.77;65.25;101711.09;5056372;28;20525;-37
2023/07/09 07:59:57;;;;;;;6.47;4.95;;;;;;;27.90;65.25;101717.63;5057056;28;20128;-37
2023/07/09 08:02:23;;;;;;;6.40;5.20;;;;;;;27.99;64.69;101718.44;5057154;28;20358;-37
2023/07/09 08:04:50;;;;;;;7.63;5.63;;;;;;;28.07;64.66;101716.81;5056438;28;20039;-37
2023/07/09 08:07:18;;;;;;;8.30;5.45;;;;;;;28.01;64.96;101704.19;5056945;28;20516;-38
2023/07/09 08:09:44;;;;;;;7.88;5.43;;;;;;;28.20;63.87;101710.22;5056101;28;20465;-37
2023/07/09 08:12:11;;;;;;;7.03;5.43;;;;;;;28.32;64.45;101707.59;5056383;28;20047;-37
2023/07/09 08:14:38;;;;;;;8.65;5.40;;;;;;;28.27;65.96;101713.34;5056835;28;20407;-38
2023/07/09 08:17:04;;;;;;;7.50;5.43;;;;;;;28.31;63.85;101700.41;5056869;28;20037;-37
2023/07/09 08:19:31;;;;;;;8.13;5.18;;;;;;;28.34;67.46;101705.31;5056116;28;20025;-37
2023/07/09 08:21:56;;;;;;;7.63;5.45;;;;;;;28.44;63.87;101709.72;5056148;28;20062;-38
2023/07/09 08:24:22;;;;;;;8.00;5.80;;;;;;;28.43;63.63;101689.44;5056146;28;20100;-37
2023/07/09 08:26:47;;;;;;;8.38;5.28;;;;;;;28.65;64.79;101707.88;5056030;28;20120;-37
2023/07/09 08:29:13;;;;;;;9.43;5.75;;;;;;;28.79;63.42;101696.50;5056029;28;20074;-37
2023/07/09 08:31:38;;;;;;;8.45;5.38;;;;;;;28.92;63.16;101706.59;5055829;28;20024;-37
2023/07/09 08:34:05;;;;;;;6.80;4.90;;;;;;;28.90;63.09;101697.78;5056275;28;20060;-37
2023/07/09 08:36:31;;;;;;;8.80;5.05;;;;;;;28.97;61.23;101700.06;5056452;28;20025;-37
2023/07/09 08:38:56;;;;;;;8.18;5.07;;;;;;;29.13;60.79;101698.31;5055533;28;20055;-37
2023/07/09 08:41:48;;;;;;;7.47;4.78;;;;;;;29.27;61.26;101700.84;5055825;28;20082;-38
2023/07/09 08:44:39;;;;;;;6.40;4.10;;;;;;;29.48;58.60;101707.28;5055867;28;20078;-38
2023/07/09 08:47:18;;;;;;;6.00;3.85;;;;;;;29.59;56.36;101692.97;5055754;28;20551;-37
2023/07/09 08:50:24;;;;;;;5.60;3.90;;;;;;;29.78;55.73;101698.88;5055667;28;20032;-37
2023/07/09 08:52:52;;;;;;;5.05;3.63;;;;;;;29.84;53.59;101691.94;4994239;28;20030;-37
2023/07/09 08:55:21;;;;;;;6.63;3.60;;;;;;;29.91;53.91;101699.75;4994732;28;20030;-37
2023/07/09 08:57:55;;;;;;;4.57;3.97;;;;;;;30.13;54.20;101704.16;5025652;28;20072;-37
2023/07/09 09:00:31;;;;;;;6.53;3.67;;;;;;;30.17;55.54;101705.13;5056634;28;20045;-38
2023/07/09 09:03:01;;;;;;;6.38;3.90;;;;;;;30.13;53.63;101699.41;5056026;28;20032;-38
2023/07/09 09:05:27;;;;;;;4.82;3.80;;;;;;;30.23;53.88;101698.16;5055389;28;20496;-38
2023/07/09 09:08:01;;;;;;;6.05;3.78;;;;;;;30.26;53.14;101700.25;5055832;28;20037;-38
2023/07/09 09:10:33;;;;;;;6.33;3.67;;;;;;;30.24;52.22;101686.66;5055574;28;20039;-38
2023/07/09 09:13:16;;;;;;;4.97;3.40;;;;;;;30.38;53.73;101677.97;5056016;28;20272;-38
2023/07/09 09:15:47;;;;;;;6.05;3.78;;;;;;;30.49;53.18;101687.50;5054928;28;20031;-38
2023/07/09 09:18:20;;;;;;;7.03;4.00;;;;;;;30.65;53.10;101686.81;5055476;28;20053;-38
2023/07/09 09:20:52;;;;;;;4.35;3.42;;;;;;;30.69;51.62;101682.19;5055075;28;20053;-38
2023/07/09 09:23:18;;;;;;;8.30;3.95;;;;;;;30.82;49.33;101681.06;5055014;28;20024;-38
2023/07/09 09:25:53;;;;;;;5.82;3.50;;;;;;;30.89;50.75;101686.91;5054965;28;20025;-38
2023/07/09 09:28:18;;;;;;;5.10;3.70;;;;;;;30.87;49.77;101678.03;5055505;28;20103;-38
2023/07/09 09:30:44;;;;;;;5.50;3.65;;;;;;;30.88;51.19;101685.25;5054871;28;20057;-38
2023/07/09 09:33:11;;;;;;;8.00;4.20;;;;;;;30.91;50.42;101684.56;5055634;28;20032;-38
2023/07/09 09:35:39;;;;;;;5.43;3.85;;;;;;;30.95;50.45;101690.25;5055590;28;20029;-38
2023/07/09 09:38:35;;;;;;;6.38;3.95;;;;;;;31.15;52.18;101682.91;5054767;28;20025;-38
2023/07/09 09:41:01;;;;;;;6.22;3.67;;;;;;;31.07;52.50;101670.69;5053350;28;20037;-38
2023/07/09 09:43:32;;;;;;;5.13;4.20;;;;;;;31.06;52.33;101659.88;5053776;28;20565;-38
2023/07/09 09:46:01;;;;;;;7.43;4.13;;;;;;;30.92;49.85;101658.25;5054391;28;20473;-38
2023/07/09 09:48:28;;;;;;;4.88;3.15;;;;;;;31.08;49.47;101658.34;5054487;28;20079;-38
2023/07/09 09:50:55;;;;;;;7.63;3.70;;;;;;;31.19;50.58;101669.88;5054817;28;20040;-38
2023/07/09 09:53:24;;;;;;;5.88;3.55;;;;;;;31.37;50.13;101659.25;5054973;28;20033;-38
2023/07/09 09:55:54;;;;;;;7.07;3.67;;;;;;;31.28;47.55;101653.81;5054444;28;20033;-38
2023/07/09 09:58:24;;;;;;;3.88;3.15;;;;;;;31.31;45.95;101653.09;5054041;28;20053;-38
2023/07/09 10:00:53;;;;;;;3.35;2.88;;;;;;;31.41;46.64;101651.81;5054879;28;20033;-38
2023/07/09 10:03:19;;;;;;;5.00;3.63;;;;;;;31.47;47.26;101645.59;5054237;28;20063;-38
2023/07/09 10:05:51;;;;;;;4.55;3.25;;;;;;;31.41;46.99;101638.63;5055074;28;20029;-38
2023/07/09 10:08:49;;;;;;;4.00;2.92;;;;;;;31.63;47.78;101636.50;5054197;28;20033;-38
2023/07/09 10:11:46;;;;;;;5.22;3.30;;;;;;;31.85;48.49;101649.91;5054679;28;20514;-38
2023/07/09 10:14:41;;;;;;;9.75;3.95;;;;;;;31.90;47.38;101646.88;5042288;28;20060;-38
2023/07/09 10:17:37;;;;;;;5.90;3.30;;;;;;;32.18;48.45;101646.03;5047578;28;20036;-38
2023/07/09 10:20:09;;;;;;;5.57;3.75;;;;;;;32.27;45.81;101641.88;5054246;28;20025;-38
2023/07/09 10:23:02;;;;;;;7.93;3.72;;;;;;;32.52;47.02;101639.75;5054026;28;20037;-38
2023/07/09 10:25:37;;;;;;;5.88;3.78;;;;;;;32.55;44.56;101655.81;5054163;28;20352;-38
2023/07/09 10:28:05;;;;;;;6.35;3.30;;;;;;;32.64;45.84;101657.59;5053832;28;20425;-38
2023/07/09 10:30:55;;;;;;;5.60;3.78;;;;;;;32.74;44.86;101660.66;5053475;28;20078;-38
2023/07/09 10:33:52;;;;;;;7.43;3.58;;;;;;;32.83;44.06;101654.88;5054630;28;20369;-38
2023/07/09 10:36:26;;;;;;;6.95;3.60;;;;;;;33.00;42.29;101665.75;5053460;28;20100;-38
2023/07/09 10:39:11;;;;;;;4.05;3.03;;;;;;;33.16;43.66;101662.09;5053734;28;20488;-38
2023/07/09 10:41:38;;;;;;;7.32;3.40;;;;;;;33.35;42.39;101666.91;5053987;28;20070;-38
2023/07/09 10:44:21;;;;;;;4.95;3.38;;;;;;;33.57;44.08;101667.00;5053857;28;20526;-38
2023/07/09 10:46:54;;;;;;;5.43;3.65;;;;;;;33.54;42.91;101653.75;5054121;28;20392;-38
2023/07/09 10:49:20;;;;;;;3.63;3.20;;;;;;;33.66;44.14;101674.41;5053272;28;20028;-38
2023/07/09 10:51:55;;;;;;;6.25;3.78;;;;;;;33.86;43.69;101672.41;5054058;28;20051;-38
2023/07/09 10:54:37;;;;;;;5.13;3.40;;;;;;;33.87;43.07;101663.63;5053568;28;20038;-38
2023/07/09 10:57:10;;;;;;;5.78;3.70;;;;;;;33.93;42.91;101652.91;5054214;28;20044;-38
2023/07/09 10:59:40;;;;;;;5.57;3.65;;;;;;;33.85;42.43;101646.34;5053958;28;20049;-38
2023/07/09 11:02:20;;;;;;;6.30;4.00;;;;;;;33.92;43.11;101643.69;5053734;28;20037;-38
2023/07/09 11:04:51;;;;;;;5.90;3.92;;;;;;;33.97;42.20;101637.00;5053190;28;20033;-38
2023/07/09 11:07:26;;;;;;;4.63;3.67;;;;;;;33.94;42.31;101641.34;5053339;28;20032;-38
2023/07/09 11:09:54;;;;;;;7.28;3.90;;;;;;;33.26;42.71;101644.69;5054002;28;20032;-38
2023/07/09 11:12:35;;;;;;;8.13;3.45;;;;;;;33.57;43.33;101646.56;5053292;28;20036;-38
2023/07/09 11:15:08;;;;;;;6.65;3.70;;;;;;;33.55;45.28;101644.16;5053568;28;20092;-38
2023/07/09 11:17:38;;;;;;;5.68;3.60;;;;;;;33.72;43.46;101644.88;5053287;28;20067;-38
2023/07/09 11:20:36;;;;;;;6.15;3.47;;;;;;;33.81;43.97;101646.25;5053486;28;20170;-38
2023/07/09 11:23:16;;;;;;;7.43;3.47;;;;;;;33.75;43.29;101658.16;5052233;28;20073;-38
2023/07/09 11:25:44;;;;;;;6.43;3.60;;;;;;;33.77;43.40;101656.63;5052960;28;20451;-38